Sacramento, California
Traffic Map
Current Weather Conditions
Sacramento, California
Clear
Clear
65°
Feels Like: 65°
Wind Chill: 65° Ceiling: Unl
Heat Index: 65° Visibility: 10mi
Dew Point: 53° Wind: 0mph
Humidity: 65% Direction: ° ()
Pressure: 29.91in Gusts: 0mph
Raw Report DataKSAC 281253Z AUTO 00000KT 10SM CLR 18/12 A2991 RMK AO2 SLP129 T01830117 TSNO
Traffic Incident Summary
Active as of:
Severity:
Category:
InformationThere was an issue retrieving the traffic information for this location. Please try a different location or try again shortly.
Advertisements
Track Severe Weather on mobile